createdAt,value
2023-05-22T00:01:32.374Z,12.04
2023-05-22T00:03:59.107Z,12.01
2023-05-22T00:06:26.136Z,11.96
2023-05-22T00:08:52.651Z,11.91
2023-05-22T00:11:19.326Z,11.91
2023-05-22T00:13:46.502Z,11.86
2023-05-22T00:16:13.047Z,11.83
2023-05-22T00:18:42.274Z,11.83
2023-05-22T00:21:09.714Z,11.87
2023-05-22T00:23:36.493Z,11.91
2023-05-22T00:26:03.170Z,11.93
2023-05-22T00:28:29.664Z,11.96
2023-05-22T00:30:56.378Z,11.99
2023-05-22T00:33:22.932Z,12.07
2023-05-22T00:35:49.555Z,12.10
2023-05-22T00:38:34.191Z,12.10
2023-05-22T00:41:02.270Z,12.13
2023-05-22T00:43:29.010Z,12.15
2023-05-22T00:45:55.724Z,12.18
2023-05-22T00:48:22.677Z,12.16
2023-05-22T00:50:54.329Z,12.18
2023-05-22T00:53:22.280Z,12.22
2023-05-22T00:55:49.027Z,12.24
2023-05-22T00:58:18.240Z,12.26
2023-05-22T01:00:46.628Z,12.29
2023-05-22T01:03:14.663Z,12.31
2023-05-22T01:05:41.957Z,12.31
2023-05-22T01:08:09.293Z,12.34
2023-05-22T01:10:38.046Z,12.35
2023-05-22T01:13:26.325Z,12.37
2023-05-22T01:16:10.889Z,12.38
2023-05-22T01:18:49.476Z,12.44
2023-05-22T01:21:22.142Z,12.45
2023-05-22T01:24:18.427Z,12.42
2023-05-22T01:27:09.299Z,12.43
2023-05-22T01:29:57.431Z,12.43
2023-05-22T01:32:25.996Z,12.40
2023-05-22T01:34:56.795Z,12.44
2023-05-22T01:37:24.403Z,12.44
2023-05-22T01:39:54.862Z,12.43
2023-05-22T01:42:21.854Z,12.44
2023-05-22T01:44:49.152Z,12.45
2023-05-22T01:47:15.808Z,12.44
2023-05-22T01:49:42.840Z,12.42
2023-05-22T01:52:31.069Z,12.40
2023-05-22T01:55:05.709Z,12.38
2023-05-22T01:57:38.934Z,12.37
2023-05-22T02:00:18.488Z,12.34
2023-05-22T02:03:08.274Z,12.34
2023-05-22T02:05:39.815Z,12.33
2023-05-22T02:08:06.874Z,12.37
2023-05-22T02:10:35.212Z,12.34
2023-05-22T02:13:02.036Z,12.33
2023-05-22T02:15:28.864Z,12.30
2023-05-22T02:17:55.624Z,12.28
2023-05-22T02:20:22.400Z,12.25
2023-05-22T02:22:48.983Z,12.22
2023-05-22T02:25:17.131Z,12.23
2023-05-22T02:27:45.668Z,12.16
2023-05-22T02:30:13.925Z,12.16
2023-05-22T02:32:41.427Z,12.18
2023-05-22T02:35:08.966Z,12.15
2023-05-22T02:37:36.056Z,12.17
2023-05-22T02:40:05.012Z,12.14
2023-05-22T02:42:31.641Z,12.13
2023-05-22T02:44:58.160Z,12.12
2023-05-22T02:47:24.723Z,12.15
2023-05-22T02:49:51.898Z,12.13
2023-05-22T02:52:18.569Z,12.12
2023-05-22T02:54:45.132Z,12.08
2023-05-22T02:57:11.704Z,12.07
2023-05-22T02:59:38.815Z,12.01
2023-05-22T03:02:05.972Z,11.95
2023-05-22T03:04:32.986Z,11.87
2023-05-22T03:06:59.902Z,11.86
2023-05-22T03:09:26.499Z,11.82
2023-05-22T03:11:53.024Z,11.77
2023-05-22T03:14:19.530Z,11.71
2023-05-22T03:16:46.227Z,11.63
2023-05-22T03:19:14.782Z,11.56
2023-05-22T03:21:44.025Z,11.50
2023-05-22T03:24:12.577Z,11.47
2023-05-22T03:26:39.575Z,11.46
2023-05-22T03:29:06.363Z,11.43
2023-05-22T03:31:33.822Z,11.30
2023-05-22T03:34:01.008Z,11.27
2023-05-22T03:36:27.690Z,11.24
2023-05-22T03:38:54.282Z,11.21
2023-05-22T03:41:20.838Z,11.18
2023-05-22T03:43:47.365Z,11.14
2023-05-22T03:46:14.052Z,11.13
2023-05-22T03:48:40.604Z,11.07
2023-05-22T03:51:07.203Z,11.06
2023-05-22T03:53:33.765Z,11.01
2023-05-22T03:56:00.326Z,10.99
2023-05-22T03:58:26.980Z,10.94
2023-05-22T04:01:01.106Z,10.90
2023-05-22T04:03:28.527Z,10.86
2023-05-22T04:05:56.832Z,10.84
2023-05-22T04:08:23.591Z,10.79
2023-05-22T04:10:50.147Z,10.79
2023-05-22T04:13:17.229Z,10.76
2023-05-22T04:15:46.381Z,10.76
2023-05-22T04:18:13.595Z,10.73
2023-05-22T04:20:40.742Z,10.73
2023-05-22T04:23:08.097Z,10.71
2023-05-22T04:25:34.751Z,10.68
2023-05-22T04:28:04.135Z,10.69
2023-05-22T04:30:34.084Z,10.70
2023-05-22T04:33:01.767Z,10.69
2023-05-22T04:35:29.685Z,10.66
2023-05-22T04:38:02.548Z,10.67
2023-05-22T04:40:30.487Z,10.67
2023-05-22T04:43:00.008Z,10.64
2023-05-22T04:45:28.943Z,10.61
2023-05-22T04:47:56.274Z,10.60
2023-05-22T04:50:23.926Z,10.62
2023-05-22T04:52:50.892Z,10.61
2023-05-22T04:55:17.626Z,10.62
2023-05-22T04:57:45.140Z,10.59
2023-05-22T05:00:14.608Z,10.61
2023-05-22T05:02:41.327Z,10.64
2023-05-22T05:05:08.517Z,10.59
2023-05-22T05:07:39.463Z,10.61
2023-05-22T05:10:07.338Z,10.58
2023-05-22T05:12:34.371Z,10.61
2023-05-22T05:15:01.169Z,10.62
2023-05-22T05:17:27.834Z,10.61
2023-05-22T05:19:54.458Z,10.61
2023-05-22T05:22:21.204Z,10.64
2023-05-22T05:24:47.880Z,10.65
2023-05-22T05:27:15.227Z,10.67
2023-05-22T05:29:41.856Z,10.64
2023-05-22T05:32:09.207Z,10.64
2023-05-22T05:34:35.937Z,10.65
2023-05-22T05:37:03.286Z,10.70
2023-05-22T05:39:29.851Z,10.69
2023-05-22T05:41:56.421Z,10.74
2023-05-22T05:44:23.036Z,10.73
2023-05-22T05:46:49.803Z,10.74
2023-05-22T05:49:16.412Z,10.75
2023-05-22T05:51:42.963Z,10.75
2023-05-22T05:54:09.499Z,10.77
2023-05-22T05:56:36.497Z,10.77
2023-05-22T05:59:04.006Z,10.83
2023-05-22T06:01:32.970Z,10.84
2023-05-22T06:04:03.237Z,10.87
2023-05-22T06:06:36.375Z,10.89
2023-05-22T06:09:06.445Z,10.91
2023-05-22T06:11:33.925Z,10.97
2023-05-22T06:14:05.058Z,11.02
2023-05-22T06:16:31.981Z,11.05
2023-05-22T06:18:59.382Z,11.12
2023-05-22T06:21:26.148Z,11.15
2023-05-22T06:23:52.837Z,11.20
2023-05-22T06:26:19.389Z,11.24
2023-05-22T06:28:45.958Z,11.28
2023-05-22T06:31:14.444Z,11.34
2023-05-22T06:33:43.293Z,11.40
2023-05-22T06:36:11.513Z,11.42
2023-05-22T06:38:39.322Z,11.47
2023-05-22T06:41:06.407Z,11.52
2023-05-22T06:43:33.047Z,11.55
2023-05-22T06:45:59.606Z,11.59
2023-05-22T06:48:26.425Z,11.63
2023-05-22T06:50:52.978Z,11.69
2023-05-22T06:53:19.562Z,11.72
2023-05-22T06:55:46.082Z,11.77
2023-05-22T06:58:12.633Z,11.81
2023-05-22T07:00:39.413Z,11.84
2023-05-22T07:03:07.132Z,11.90
2023-05-22T07:05:33.873Z,11.94
2023-05-22T07:08:01.305Z,11.99
2023-05-22T07:10:27.979Z,12.04
2023-05-22T07:12:54.981Z,12.11
2023-05-22T07:15:21.780Z,12.17
2023-05-22T07:17:49.361Z,12.25
2023-05-22T07:20:16.834Z,12.33
2023-05-22T07:22:43.527Z,12.40
2023-05-22T07:25:10.296Z,12.47
2023-05-22T07:27:36.977Z,12.54
2023-05-22T07:30:04.102Z,12.59
2023-05-22T07:32:30.671Z,12.65
2023-05-22T07:34:57.207Z,12.72
2023-05-22T07:37:23.831Z,12.80
2023-05-22T07:39:50.394Z,12.87
2023-05-22T07:42:17.436Z,12.97
2023-05-22T07:44:43.955Z,13.07
2023-05-22T07:47:10.529Z,13.20
2023-05-22T07:49:37.144Z,13.35
2023-05-22T07:52:03.815Z,13.49
2023-05-22T07:54:30.625Z,13.65
2023-05-22T07:56:57.517Z,13.81
2023-05-22T07:59:25.541Z,13.90
2023-05-22T08:01:52.193Z,14.01
2023-05-22T08:04:19.013Z,14.13
2023-05-22T08:06:45.719Z,14.24
2023-05-22T08:09:12.426Z,14.34
2023-05-22T08:11:42.154Z,14.45
2023-05-22T08:14:09.173Z,14.55
2023-05-22T08:16:35.823Z,14.68
2023-05-22T08:19:03.200Z,14.84
2023-05-22T08:21:29.922Z,14.99
2023-05-22T08:23:56.709Z,15.18
2023-05-22T08:26:23.311Z,15.36
2023-05-22T08:28:49.895Z,15.55
2023-05-22T08:31:16.466Z,15.72
2023-05-22T08:33:43.168Z,15.89
2023-05-22T08:36:09.796Z,16.02
2023-05-22T08:38:37.379Z,16.14
2023-05-22T08:41:06.742Z,16.24
2023-05-22T08:43:33.380Z,16.38
2023-05-22T08:46:09.087Z,16.47
2023-05-22T08:48:35.975Z,16.57
2023-05-22T08:51:04.526Z,16.71
2023-05-22T08:53:36.663Z,16.77
2023-05-22T08:56:05.513Z,16.87
2023-05-22T08:58:34.761Z,16.96
2023-05-22T09:01:02.675Z,17.06
2023-05-22T09:03:32.941Z,17.15
2023-05-22T09:06:01.210Z,17.25
2023-05-22T09:08:29.026Z,17.35
2023-05-22T09:10:56.410Z,17.40
2023-05-22T09:13:30.527Z,17.49
2023-05-22T09:16:09.556Z,17.57
2023-05-22T09:18:40.224Z,17.66
2023-05-22T09:21:11.720Z,17.73
2023-05-22T09:23:50.433Z,17.82
2023-05-22T09:26:17.085Z,17.90
2023-05-22T09:28:44.443Z,17.96
2023-05-22T09:31:11.306Z,18.03
2023-05-22T09:33:37.973Z,18.10
2023-05-22T09:36:08.799Z,18.17
2023-05-22T09:38:35.568Z,18.24
2023-05-22T09:41:02.132Z,18.30
2023-05-22T09:43:28.669Z,18.38
2023-05-22T09:46:01.985Z,18.45
2023-05-22T09:48:29.100Z,18.50
2023-05-22T09:50:59.838Z,18.58
2023-05-22T09:53:28.982Z,18.65
2023-05-22T09:56:00.424Z,18.72
2023-05-22T09:58:31.112Z,18.79
2023-05-22T10:00:59.264Z,18.86
2023-05-22T10:03:27.336Z,18.93
2023-05-22T10:05:56.471Z,18.98
2023-05-22T10:08:28.992Z,19.05
2023-05-22T10:10:56.173Z,19.13
2023-05-22T10:13:25.348Z,19.19
2023-05-22T10:15:52.703Z,19.27
2023-05-22T10:18:19.936Z,19.32
2023-05-22T10:20:49.130Z,19.39
2023-05-22T10:23:18.734Z,19.45
2023-05-22T10:25:46.011Z,19.50
2023-05-22T10:28:19.125Z,19.56
2023-05-22T10:30:54.688Z,19.64
2023-05-22T10:33:28.833Z,19.69
2023-05-22T10:36:03.990Z,19.72
2023-05-22T10:38:51.714Z,19.76
2023-05-22T10:41:18.846Z,19.80
2023-05-22T10:43:49.278Z,19.81
2023-05-22T10:46:16.387Z,19.83
2023-05-22T10:48:47.906Z,19.83
2023-05-22T10:51:19.411Z,19.85
2023-05-22T10:53:53.226Z,19.87
2023-05-22T10:56:21.263Z,19.89
2023-05-22T10:58:57.743Z,19.93
2023-05-22T11:01:27.203Z,19.96
2023-05-22T11:03:56.779Z,20.00
2023-05-22T11:06:37.176Z,20.06
2023-05-22T11:09:24.779Z,20.16
2023-05-22T11:12:31.162Z,20.25
2023-05-22T11:14:58.828Z,20.32
2023-05-22T11:17:31.283Z,20.40
2023-05-22T11:19:59.860Z,20.50
2023-05-22T11:22:36.959Z,20.61
2023-05-22T11:25:07.223Z,20.70
2023-05-22T11:27:35.583Z,20.81
2023-05-22T11:30:02.883Z,20.91
2023-05-22T11:32:29.582Z,21.00
2023-05-22T11:34:57.562Z,21.07
2023-05-22T11:37:24.384Z,21.17
2023-05-22T11:39:58.904Z,21.25
2023-05-22T11:42:25.630Z,21.37
2023-05-22T11:44:52.287Z,21.47
2023-05-22T11:47:18.961Z,21.56
2023-05-22T11:49:46.181Z,21.66
2023-05-22T11:52:12.933Z,21.73
2023-05-22T11:54:39.413Z,21.82
2023-05-22T11:57:09.645Z,21.93
2023-05-22T11:59:36.273Z,22.06
2023-05-22T12:02:03.048Z,22.19
2023-05-22T12:04:29.849Z,22.33
2023-05-22T12:06:56.642Z,22.49
2023-05-22T12:09:23.412Z,22.65
2023-05-22T12:11:50.298Z,22.82
2023-05-22T12:14:16.927Z,23.03
2023-05-22T12:16:44.665Z,23.23
2023-05-22T12:19:12.541Z,23.44
2023-05-22T12:21:40.922Z,23.65
2023-05-22T12:24:08.402Z,23.85
2023-05-22T12:26:36.386Z,24.02
2023-05-22T12:29:04.050Z,24.19
2023-05-22T12:31:38.556Z,24.39
2023-05-22T12:34:08.134Z,24.56
2023-05-22T12:36:45.509Z,24.75
2023-05-22T12:39:18.803Z,24.95
2023-05-22T12:41:45.961Z,25.09
2023-05-22T12:44:13.091Z,25.27
2023-05-22T12:46:41.098Z,25.46
2023-05-22T12:49:07.872Z,25.65
2023-05-22T12:51:35.008Z,25.82
2023-05-22T12:54:02.642Z,26.01
2023-05-22T12:56:30.461Z,26.17
2023-05-22T12:58:58.054Z,26.37
2023-05-22T13:01:25.093Z,26.55
2023-05-22T13:03:54.869Z,26.72
2023-05-22T13:06:21.552Z,26.90
2023-05-22T13:08:48.144Z,27.08
2023-05-22T13:11:14.747Z,27.23
2023-05-22T13:13:41.285Z,27.39
2023-05-22T13:16:09.674Z,27.54
2023-05-22T13:18:36.239Z,27.71
2023-05-22T13:21:02.861Z,27.86
2023-05-22T13:23:29.412Z,28.01
2023-05-22T13:25:55.975Z,28.15
2023-05-22T13:28:22.558Z,28.28
2023-05-22T13:30:49.106Z,28.41
2023-05-22T13:33:15.674Z,28.54
2023-05-22T13:35:42.337Z,28.65
2023-05-22T13:38:09.167Z,28.76
2023-05-22T13:40:35.827Z,28.86
2023-05-22T13:43:02.431Z,28.93
2023-05-22T13:45:29.030Z,29.02
2023-05-22T13:47:55.910Z,29.13
2023-05-22T13:50:22.508Z,29.26
2023-05-22T13:52:49.157Z,29.38
2023-05-22T13:55:15.953Z,29.51
2023-05-22T13:57:42.495Z,29.62
2023-05-22T14:00:10.143Z,29.75
2023-05-22T14:02:36.918Z,29.90
2023-05-22T14:05:03.748Z,29.99
2023-05-22T14:07:30.497Z,30.10
2023-05-22T14:09:59.008Z,30.21
2023-05-22T14:12:27.084Z,30.31
2023-05-22T14:14:53.685Z,30.39
2023-05-22T14:17:20.314Z,30.44
2023-05-22T14:19:46.995Z,30.49
2023-05-22T14:22:13.582Z,30.54
2023-05-22T14:24:40.190Z,30.59
2023-05-22T14:27:06.718Z,30.64
2023-05-22T14:29:33.332Z,30.72
2023-05-22T14:32:04.782Z,30.77
2023-05-22T14:34:31.761Z,30.83
2023-05-22T14:36:58.605Z,30.85
2023-05-22T14:39:26.122Z,30.90
2023-05-22T14:41:53.557Z,30.95
2023-05-22T14:44:22.411Z,30.97
2023-05-22T14:46:51.189Z,30.99
2023-05-22T14:49:18.006Z,30.99
2023-05-22T14:51:47.997Z,30.95
2023-05-22T14:54:17.666Z,30.97
2023-05-22T14:56:44.415Z,30.93
2023-05-22T14:59:11.884Z,30.92
2023-05-22T15:01:39.050Z,30.87
2023-05-22T15:04:06.384Z,30.83
2023-05-22T15:06:33.074Z,30.79
2023-05-22T15:08:59.627Z,30.75
2023-05-22T15:11:27.043Z,30.71
2023-05-22T15:13:56.495Z,30.66
2023-05-22T15:16:23.288Z,30.62
2023-05-22T15:18:50.607Z,30.56
2023-05-22T15:21:17.355Z,30.53
2023-05-22T15:23:44.222Z,30.50
2023-05-22T15:26:10.993Z,30.45
2023-05-22T15:28:37.676Z,30.42
2023-05-22T15:31:04.297Z,30.34
2023-05-22T15:33:30.992Z,30.21
2023-05-22T15:35:57.552Z,30.12
2023-05-22T15:38:24.132Z,30.04
2023-05-22T15:40:50.659Z,30.01
2023-05-22T15:43:17.263Z,29.94
2023-05-22T15:45:47.344Z,29.88
2023-05-22T15:48:14.295Z,29.86
2023-05-22T15:50:40.947Z,29.80
2023-05-22T15:53:07.555Z,29.75
2023-05-22T15:55:34.221Z,29.71
2023-05-22T15:58:01.434Z,29.65
2023-05-22T16:00:28.873Z,29.59
2023-05-22T16:02:55.582Z,29.52
2023-05-22T16:05:22.302Z,29.46
2023-05-22T16:07:48.890Z,29.42
2023-05-22T16:10:15.568Z,29.40
2023-05-22T16:12:42.133Z,29.38
2023-05-22T16:15:09.488Z,29.36
2023-05-22T16:17:36.095Z,29.36
2023-05-22T16:20:04.717Z,29.32
2023-05-22T16:22:44.304Z,29.25
2023-05-22T16:25:16.540Z,29.16
2023-05-22T16:27:43.272Z,29.06
2023-05-22T16:30:11.392Z,28.95
2023-05-22T16:32:38.429Z,28.88
2023-05-22T16:35:05.583Z,28.82
2023-05-22T16:37:33.752Z,28.80
2023-05-22T16:40:00.613Z,28.79
2023-05-22T16:42:27.314Z,28.71
2023-05-22T16:44:53.960Z,28.61
2023-05-22T16:47:21.713Z,28.50
2023-05-22T16:49:48.550Z,28.42
2023-05-22T16:52:16.381Z,28.35
2023-05-22T16:54:42.920Z,28.31
2023-05-22T16:57:09.505Z,28.29
2023-05-22T16:59:36.009Z,28.25
2023-05-22T17:02:02.636Z,28.21
2023-05-22T17:04:29.250Z,28.13
2023-05-22T17:06:56.049Z,28.00
2023-05-22T17:09:22.612Z,27.87
2023-05-22T17:11:49.359Z,27.75
2023-05-22T17:14:15.951Z,27.56
2023-05-22T17:16:42.537Z,27.39
2023-05-22T17:19:09.908Z,27.23
2023-05-22T17:21:37.009Z,27.01
2023-05-22T17:24:03.972Z,26.85
2023-05-22T17:26:30.534Z,26.67
2023-05-22T17:28:57.066Z,26.51
2023-05-22T17:31:23.636Z,26.37
2023-05-22T17:33:50.242Z,26.23
2023-05-22T17:36:16.848Z,26.08
2023-05-22T17:38:43.396Z,25.95
2023-05-22T17:41:10.378Z,25.81
2023-05-22T17:43:38.264Z,25.71
2023-05-22T17:46:08.480Z,25.60
2023-05-22T17:48:35.212Z,25.51
2023-05-22T17:51:02.189Z,25.42
2023-05-22T17:53:34.000Z,25.33
2023-05-22T17:56:01.104Z,25.21
2023-05-22T17:58:27.719Z,25.09
2023-05-22T18:00:54.254Z,24.95
2023-05-22T18:03:20.995Z,24.83
2023-05-22T18:05:48.685Z,24.72
2023-05-22T18:08:15.368Z,24.59
2023-05-22T18:10:42.114Z,24.44
2023-05-22T18:13:09.036Z,24.32
2023-05-22T18:15:35.934Z,24.18
2023-05-22T18:18:03.663Z,24.07
2023-05-22T18:20:31.632Z,23.98
2023-05-22T18:22:58.326Z,23.86
2023-05-22T18:25:25.052Z,23.76
2023-05-22T18:27:51.641Z,23.66
2023-05-22T18:30:18.165Z,23.55
2023-05-22T18:32:44.759Z,23.45
2023-05-22T18:35:11.591Z,23.35
2023-05-22T18:37:38.129Z,23.25
2023-05-22T18:40:07.592Z,23.15
2023-05-22T18:42:34.120Z,23.02
2023-05-22T18:45:00.813Z,22.85
2023-05-22T18:47:27.455Z,22.77
2023-05-22T18:49:54.077Z,22.67
2023-05-22T18:52:20.746Z,22.56
2023-05-22T18:54:47.460Z,22.47
2023-05-22T18:57:14.012Z,22.40
2023-05-22T18:59:41.348Z,22.33
2023-05-22T19:02:08.471Z,22.23
2023-05-22T19:04:35.103Z,22.12
2023-05-22T19:07:01.647Z,22.02
2023-05-22T19:09:28.244Z,21.88
2023-05-22T19:11:54.773Z,21.75
2023-05-22T19:14:21.291Z,21.60
2023-05-22T19:16:47.956Z,21.51
2023-05-22T19:19:14.873Z,21.40
2023-05-22T19:21:41.666Z,21.29
2023-05-22T19:24:08.340Z,21.19
2023-05-22T19:26:34.929Z,21.10
2023-05-22T19:29:01.491Z,21.00
2023-05-22T19:31:31.228Z,20.90
2023-05-22T19:33:57.850Z,20.86
2023-05-22T19:36:24.417Z,20.78
2023-05-22T19:38:53.271Z,20.67
2023-05-22T19:41:20.584Z,20.54
2023-05-22T19:43:47.168Z,20.46
2023-05-22T19:46:13.740Z,20.39
2023-05-22T19:48:40.314Z,20.26
2023-05-22T19:51:08.732Z,20.21
2023-05-22T19:53:35.358Z,20.09
2023-05-22T19:56:02.695Z,20.02
2023-05-22T19:58:29.340Z,19.93
2023-05-22T20:00:56.012Z,19.85
2023-05-22T20:03:23.406Z,19.77
2023-05-22T20:05:53.231Z,19.69
2023-05-22T20:08:21.691Z,19.59
2023-05-22T20:10:48.759Z,19.54
2023-05-22T20:13:15.520Z,19.46
2023-05-22T20:15:42.333Z,19.43
2023-05-22T20:18:10.688Z,19.35
2023-05-22T20:20:37.316Z,19.28
2023-05-22T20:23:03.947Z,19.21
2023-05-22T20:25:30.610Z,19.13
2023-05-22T20:27:57.231Z,19.03
2023-05-22T20:30:23.851Z,18.97
2023-05-22T20:32:50.537Z,18.92
2023-05-22T20:35:20.244Z,18.78
2023-05-22T20:37:47.673Z,18.74
2023-05-22T20:40:15.099Z,18.67
2023-05-22T20:42:42.716Z,18.62
2023-05-22T20:45:14.865Z,18.54
2023-05-22T20:47:42.857Z,18.50
2023-05-22T20:50:09.907Z,18.45
2023-05-22T20:52:37.453Z,18.40
2023-05-22T20:55:04.626Z,18.36
2023-05-22T20:57:31.430Z,18.29
2023-05-22T20:59:58.476Z,18.21
2023-05-22T21:02:26.044Z,18.17
2023-05-22T21:04:53.958Z,18.08
2023-05-22T21:07:20.511Z,17.99
2023-05-22T21:09:47.196Z,17.90
2023-05-22T21:12:13.749Z,17.83
2023-05-22T21:14:40.360Z,17.81
2023-05-22T21:17:07.307Z,17.77
2023-05-22T21:19:34.004Z,17.74
2023-05-22T21:22:00.620Z,17.75
2023-05-22T21:24:27.162Z,17.73
2023-05-22T21:26:53.674Z,17.70
2023-05-22T21:29:20.172Z,17.68
2023-05-22T21:31:46.702Z,17.68
2023-05-22T21:34:13.282Z,17.66
2023-05-22T21:36:39.926Z,17.61
2023-05-22T21:39:06.498Z,17.58
2023-05-22T21:41:33.033Z,17.53
2023-05-22T21:43:59.706Z,17.51
2023-05-22T21:46:26.406Z,17.48
2023-05-22T21:48:53.884Z,17.47
2023-05-22T21:51:20.675Z,17.43
2023-05-22T21:53:47.424Z,17.42
2023-05-22T21:56:13.951Z,17.38
2023-05-22T21:58:40.590Z,17.34
2023-05-22T22:01:07.237Z,17.32
2023-05-22T22:03:33.940Z,17.29
2023-05-22T22:06:00.681Z,17.28
2023-05-22T22:08:28.371Z,17.26
2023-05-22T22:10:55.601Z,17.22
2023-05-22T22:13:22.437Z,17.17
2023-05-22T22:15:49.039Z,17.15
2023-05-22T22:18:16.258Z,17.09
2023-05-22T22:20:45.405Z,17.05
2023-05-22T22:23:12.603Z,17.03
2023-05-22T22:25:39.450Z,17.00
2023-05-22T22:28:07.397Z,16.97
2023-05-22T22:30:35.248Z,16.95
2023-05-22T22:33:02.146Z,16.92
2023-05-22T22:35:28.848Z,16.85
2023-05-22T22:37:55.488Z,16.81
2023-05-22T22:40:22.468Z,16.79
2023-05-22T22:42:49.764Z,16.76
2023-05-22T22:45:16.291Z,16.70
2023-05-22T22:47:42.858Z,16.69
2023-05-22T22:50:10.040Z,16.68
2023-05-22T22:52:40.171Z,16.65
2023-05-22T22:55:07.263Z,16.62
2023-05-22T22:57:33.951Z,16.60
2023-05-22T23:00:00.680Z,16.56
2023-05-22T23:02:27.264Z,16.56
2023-05-22T23:04:53.939Z,16.52
2023-05-22T23:07:20.538Z,16.47
2023-05-22T23:09:47.057Z,16.45
2023-05-22T23:12:13.643Z,16.40
2023-05-22T23:14:40.209Z,16.37
2023-05-22T23:17:06.729Z,16.35
2023-05-22T23:19:33.313Z,16.33
2023-05-22T23:21:59.891Z,16.27
2023-05-22T23:24:26.444Z,16.22
2023-05-22T23:26:53.122Z,16.17
2023-05-22T23:29:19.703Z,16.13
2023-05-22T23:31:47.532Z,16.08
2023-05-22T23:34:14.248Z,16.04
2023-05-22T23:36:41.055Z,15.98
2023-05-22T23:39:07.766Z,15.94
2023-05-22T23:41:35.544Z,15.89
2023-05-22T23:44:02.487Z,15.80
2023-05-22T23:46:29.513Z,15.73
2023-05-22T23:48:56.406Z,15.64
2023-05-22T23:51:23.059Z,15.57
2023-05-22T23:53:49.709Z,15.50
2023-05-22T23:56:17.085Z,15.40
2023-05-22T23:58:43.692Z,15.35
